マイアミ の空港の天気 - METARとTAF

マイアミ国際空港 ( KMIA / MIA ) - アメリカ合衆国 フロリダ州マイアミ
飛行場実況気象(Metar)
観測時間09/26 07:53 EDT (09/26 11:53 UTC)
風向・風速西北西 3m/s
視程9650m
天気現象弱い雨 もや
少しの雲 雲底高度 180m
全天の8割程度の雲 雲底高度 2740m
全天を覆う雲 雲底高度 3350m
気温24.4℃
湿度100%
気圧1013.4hPa
METARKMIA 261153Z 30006KT 6SM -RA BR FEW006 BKN090 OVC110 24/24 A2993 RMK AO2 LTG DSNT N AND NE SLP134 TSE43 CB DSNT NW-NE MOV N P0015 60023 70023 T02440244 10283 20244 51024 $
過去の天気等 Google飛行場航空写真 Wunderground天気予報

過去48時間のMETAR

飛行場予報(TAF)
発表時間: 9/26 07:40 EDT (9/26 11:40 UTC)
予報対象時間: 26日8時 EDT ~ 27日8時 EDT
風向・風速不定 3m/s
視程10km以上
天気現象周辺で雷
少しの積乱雲 雲底高度 760m
全天の4割程度の雲 雲底高度 1,520m
26日8時 EDT ~ 26日10時 EDT に一時的に
視程8,050m
天気現象雷雨
全天の4割程度の積乱雲 雲底高度 760m
全天の8割程度の雲 雲底高度 1,520m
26日12時 EDT から
風向・風速南 4m/s
視程10km以上
天気現象周辺でしゅう雨
全天の4割程度の雲 雲底高度 760m
26日14時 EDT から
風向・風速南南西 4m/s
視程10km以上
天気現象周辺で雷
全天の4割程度の積乱雲 雲底高度 910m
26日20時 EDT から
風向・風速南西 3m/s
視程10km以上
全天の4割程度の雲 雲底高度 760m
KMIA 261140Z 2612/2712 VRB05KT P6SM VCTS FEW025CB SCT050
TEMPO 2612/2614 5SM TSRA SCT025CB BKN050
FM261600 19008KT P6SM VCSH SCT025
FM261800 20008KT P6SM VCTS SCT030CB
FM270000 22005KT P6SM SCT025